Time;durP1;ratioP1;P1;durP2;ratioP2;P2;SDS_P1;SDS_P2;PMS_P1;PMS_P2;Temp;Humidity;BMP_temperature;BMP_pressure;BME280_temperature;BME280_humidity;BME280_pressure;Samples;Min_cycle;Max_cycle;Signal;HPM_P1;HPM_P2
2022/03/09 00:01:14;;;;;;;5.70;2.60;;;;;;;-2.93;99.60;97337.97;10495762;28;20218;-60
2022/03/09 00:06:14;;;;;;;5.53;2.57;;;;;;;-2.97;99.34;97337.25;10494712;28;20203;-61
2022/03/09 00:11:15;;;;;;;4.67;2.87;;;;;;;-3.08;100.00;97334.22;10495100;28;20233;-60
2022/03/09 00:16:15;;;;;;;3.47;2.07;;;;;;;-3.10;100.00;97339.41;10495233;28;20229;-60
2022/03/09 00:21:16;;;;;;;5.93;2.63;;;;;;;-3.09;100.00;97338.53;10494426;28;20243;-59
2022/03/09 00:26:16;;;;;;;4.13;2.73;;;;;;;-3.12;100.00;97338.66;10495122;28;20271;-60
2022/03/09 00:31:17;;;;;;;6.57;2.27;;;;;;;-3.17;100.00;97335.44;10494599;28;20687;-60
2022/03/09 00:36:18;;;;;;;7.03;3.00;;;;;;;-3.20;100.00;97338.09;10494476;28;20591;-60
2022/03/09 00:41:18;;;;;;;4.80;2.73;;;;;;;-3.19;100.00;97333.81;10494038;28;20219;-60
2022/03/09 00:46:18;;;;;;;7.80;3.10;;;;;;;-3.28;100.00;97330.69;10494033;28;20308;-61
2022/03/09 00:51:19;;;;;;;4.47;2.20;;;;;;;-3.26;100.00;97339.16;10494191;28;20210;-58
2022/03/09 00:56:19;;;;;;;5.97;2.60;;;;;;;-3.19;100.00;97334.63;10493973;28;20268;-61
2022/03/09 01:01:20;;;;;;;5.30;2.53;;;;;;;-3.18;100.00;97344.00;10492609;28;20210;-59
2022/03/09 01:06:20;;;;;;;3.90;2.50;;;;;;;-3.18;100.00;97341.44;10493940;28;20186;-59
2022/03/09 01:11:20;;;;;;;3.83;2.37;;;;;;;-3.18;100.00;97336.31;10494039;28;20239;-60
2022/03/09 01:16:21;;;;;;;6.30;2.33;;;;;;;-3.23;100.00;97327.97;10493788;28;20223;-60
2022/03/09 01:21:21;;;;;;;5.03;2.57;;;;;;;-3.20;100.00;97329.56;10524605;22;20242;-59
2022/03/09 01:26:23;;;;;;;3.93;2.40;;;;;;;-3.20;100.00;97327.00;10493470;28;20191;-57
2022/03/09 01:31:23;;;;;;;3.33;2.10;;;;;;;-3.13;100.00;97326.72;10493161;28;20206;-53
2022/03/09 01:36:24;;;;;;;4.67;2.20;;;;;;;-3.19;100.00;97316.69;10492973;28;20268;-53
2022/03/09 01:41:24;;;;;;;5.17;1.83;;;;;;;-3.27;100.00;97316.97;10492355;28;20242;-53
2022/03/09 01:46:24;;;;;;;3.40;2.50;;;;;;;-3.28;100.00;97309.34;10492926;28;20217;-60
2022/03/09 01:51:25;;;;;;;10.83;3.00;;;;;;;-3.29;100.00;97310.25;10492608;28;20217;-54
2022/03/09 01:56:27;;;;;;;5.40;2.80;;;;;;;-3.34;100.00;97307.84;10492754;28;20562;-59
2022/03/09 02:01:27;;;;;;;6.63;2.43;;;;;;;-3.29;100.00;97300.00;10492073;28;20215;-60
2022/03/09 02:06:27;;;;;;;2.73;2.00;;;;;;;-3.25;100.00;97304.97;10492030;28;20191;-60
2022/03/09 02:11:29;;;;;;;4.97;2.57;;;;;;;-3.26;100.00;97297.34;10491707;28;20219;-60
2022/03/09 02:16:29;;;;;;;4.90;2.57;;;;;;;-3.26;100.00;97310.16;10491794;28;20211;-55
2022/03/09 02:21:32;;;;;;;5.40;2.47;;;;;;;-3.35;100.00;97305.31;10514641;28;20739;-60
2022/03/09 02:26:34;;;;;;;4.20;2.40;;;;;;;-3.37;100.00;97309.69;10533769;28;20266;-59
2022/03/09 02:31:35;;;;;;;5.23;2.90;;;;;;;-3.43;100.00;97316.72;10540521;28;20297;-59
2022/03/09 02:36:35;;;;;;;5.20;2.70;;;;;;;-3.38;100.00;97315.69;10540978;28;20222;-59
2022/03/09 02:41:35;;;;;;;6.20;3.20;;;;;;;-3.42;100.00;97317.53;10540333;28;20202;-54
2022/03/09 02:46:36;;;;;;;2.67;2.43;;;;;;;-3.36;100.00;97313.94;10540870;28;20191;-59
2022/03/09 02:51:36;;;;;;;14.07;2.40;;;;;;;-3.38;100.00;97308.00;10540221;28;20229;-53
2022/03/09 02:56:36;;;;;;;4.27;2.00;;;;;;;-3.35;100.00;97308.75;10540385;28;20233;-56
2022/03/09 03:01:39;;;;;;;5.37;3.13;;;;;;;-3.40;100.00;97318.31;10539773;28;20207;-57
2022/03/09 03:06:40;;;;;;;3.40;2.37;;;;;;;-3.42;100.00;97314.97;10540093;28;20244;-52
2022/03/09 03:11:40;;;;;;;4.27;2.23;;;;;;;-3.49;100.00;97319.50;10539651;28;20213;-57
2022/03/09 03:16:40;;;;;;;5.43;2.83;;;;;;;-3.46;100.00;97314.25;10539287;28;20211;-53
2022/03/09 03:21:41;;;;;;;4.97;2.20;;;;;;;-3.37;100.00;97315.63;10539262;28;20309;-56
2022/03/09 03:26:41;;;;;;;7.87;3.53;;;;;;;-3.41;100.00;97309.78;10538747;28;20189;-52
2022/03/09 03:31:41;;;;;;;5.00;3.13;;;;;;;-3.51;100.00;97310.19;10539106;28;20207;-54
2022/03/09 03:36:42;;;;;;;7.40;2.60;;;;;;;-3.54;100.00;97295.75;10538539;28;20222;-55
2022/03/09 03:41:42;;;;;;;7.97;3.97;;;;;;;-3.53;100.00;97297.44;10536474;28;20694;-52
2022/03/09 03:46:44;;;;;;;3.77;2.30;;;;;;;-3.52;100.00;97296.56;10538526;28;20198;-53
2022/03/09 03:51:44;;;;;;;5.10;2.07;;;;;;;-3.61;100.00;97289.19;10537747;28;20292;-53
2022/03/09 03:56:46;;;;;;;2.33;1.47;;;;;;;-3.66;100.00;97291.94;10538499;28;20292;-55
2022/03/09 04:01:46;;;;;;;3.43;2.10;;;;;;;-3.67;100.00;97297.09;10537386;28;20217;-53
2022/03/09 04:06:47;;;;;;;6.33;3.23;;;;;;;-3.67;100.00;97297.09;10497694;28;20187;-55
2022/03/09 04:11:47;;;;;;;6.43;2.80;;;;;;;-3.81;100.00;97295.03;10495555;28;20234;-54
2022/03/09 04:16:48;;;;;;;3.77;2.53;;;;;;;-3.86;100.00;97294.34;10494789;28;20237;-52
2022/03/09 04:21:49;;;;;;;3.03;1.93;;;;;;;-3.72;100.00;97297.25;10494997;28;20380;-54
2022/03/09 04:26:50;;;;;;;3.70;2.33;;;;;;;-3.67;100.00;97292.81;10494609;28;20205;-55
2022/03/09 04:31:50;;;;;;;3.43;2.27;;;;;;;-3.70;100.00;97294.66;10495527;28;20575;-58
2022/03/09 04:36:51;;;;;;;4.80;2.20;;;;;;;-3.76;100.00;97295.69;10495180;28;20228;-57
2022/03/09 04:41:51;;;;;;;3.57;2.27;;;;;;;-3.78;100.00;97289.81;10493665;28;20225;-60
2022/03/09 04:46:51;;;;;;;9.07;2.53;;;;;;;-3.77;100.00;97289.75;10494397;28;20182;-54
2022/03/09 04:51:52;;;;;;;4.40;2.00;;;;;;;-3.78;100.00;97288.06;10493352;28;20222;-55
2022/03/09 04:56:52;;;;;;;5.00;2.03;;;;;;;-3.81;100.00;97282.22;10494093;28;20218;-55
2022/03/09 05:01:52;;;;;;;3.77;2.17;;;;;;;-3.87;100.00;97290.13;10493638;28;20296;-56
2022/03/09 05:06:53;;;;;;;5.93;2.77;;;;;;;-3.87;100.00;97292.69;10494002;28;20195;-54
2022/03/09 05:11:53;;;;;;;3.87;2.00;;;;;;;-3.91;100.00;97296.22;10494027;28;20210;-53
2022/03/09 05:16:54;;;;;;;4.60;2.73;;;;;;;-4.07;100.00;97301.00;10493637;28;20215;-53
2022/03/09 05:21:55;;;;;;;3.57;2.23;;;;;;;-4.01;100.00;97311.91;10493521;28;20250;-56
2022/03/09 05:26:55;;;;;;;4.27;2.23;;;;;;;-3.98;100.00;97316.91;10493503;28;20190;-56
2022/03/09 05:31:55;;;;;;;4.07;2.23;;;;;;;-3.89;100.00;97325.16;10493382;28;20213;-52
2022/03/09 05:36:56;;;;;;;9.03;2.97;;;;;;;-3.99;100.00;97330.59;10493384;28;20222;-58
2022/03/09 05:41:56;;;;;;;5.70;3.20;;;;;;;-3.99;100.00;97332.31;10492625;28;20218;-57
2022/03/09 05:46:57;;;;;;;3.63;2.47;;;;;;;-3.92;100.00;97331.22;10493321;28;20197;-58
2022/03/09 05:51:57;;;;;;;3.00;1.73;;;;;;;-3.85;100.00;97330.13;10492949;28;20859;-56
2022/03/09 05:56:58;;;;;;;3.70;2.30;;;;;;;-3.86;100.00;97348.09;10492718;28;20222;-56
2022/03/09 06:01:58;;;;;;;2.43;1.97;;;;;;;-3.84;100.00;97351.44;10495150;28;20240;-58
2022/03/09 06:07:01;;;;;;;3.30;2.00;;;;;;;-3.72;100.00;97342.50;10500481;28;20193;-54
2022/03/09 06:12:01;;;;;;;2.53;2.13;;;;;;;-3.71;100.00;97341.63;10500347;28;20249;-54
2022/03/09 06:17:01;;;;;;;4.70;2.40;;;;;;;-3.72;100.00;97337.38;10500427;28;20245;-53
2022/03/09 06:22:02;;;;;;;5.13;2.20;;;;;;;-3.61;100.00;97338.69;10499646;28;20258;-52
2022/03/09 06:27:03;;;;;;;3.03;1.90;;;;;;;-3.66;100.00;97348.25;10500100;28;20196;-54
2022/03/09 06:32:04;;;;;;;6.00;2.37;;;;;;;-3.59;100.00;97359.09;10499372;28;20226;-55
2022/03/09 06:37:04;;;;;;;2.60;1.70;;;;;;;-3.40;100.00;97361.84;10499393;28;20224;-56
2022/03/09 06:42:05;;;;;;;1.57;1.40;;;;;;;-3.13;100.00;97357.47;10499019;28;20220;-56
2022/03/09 06:47:05;;;;;;;1.77;1.60;;;;;;;-2.40;97.77;97352.19;10498983;28;20180;-56
2022/03/09 06:52:06;;;;;;;4.43;3.00;;;;;;;-1.89;93.61;97340.69;10499261;28;20262;-59
2022/03/09 06:57:07;;;;;;;9.67;2.97;;;;;;;-1.62;90.70;97322.44;10498351;28;20623;-59
2022/03/09 07:02:07;;;;;;;5.17;2.63;;;;;;;-1.35;88.20;97307.53;10498677;28;20608;-58
2022/03/09 07:07:07;;;;;;;4.67;3.33;;;;;;;-1.17;85.26;97290.47;10512663;28;20181;-59
2022/03/09 07:12:08;;;;;;;3.60;2.33;;;;;;;-0.87;84.15;97289.97;10559450;28;20214;-62
2022/03/09 07:17:09;;;;;;;4.53;2.30;;;;;;;-0.44;81.76;97272.50;10560259;28;20218;-63
2022/03/09 07:22:09;;;;;;;3.90;2.40;;;;;;;-0.09;81.18;97267.34;10569856;22;20234;-57
2022/03/09 07:27:09;;;;;;;6.20;2.47;;;;;;;0.27;78.41;97247.53;10539903;28;20259;-59
2022/03/09 07:32:14;;;;;;;6.03;2.50;;;;;;;0.69;77.07;97241.88;10539370;28;20213;-62
2022/03/09 07:37:14;;;;;;;4.60;2.90;;;;;;;1.06;76.39;97237.28;10538858;28;20234;-58
2022/03/09 07:42:15;;;;;;;6.57;2.70;;;;;;;1.68;72.77;97202.81;10539290;28;20221;-60
2022/03/09 07:47:15;;;;;;;3.97;2.70;;;;;;;2.16;71.67;97196.59;10498465;28;20206;-61
2022/03/09 07:52:15;;;;;;;5.57;2.93;;;;;;;3.25;68.87;97176.03;10496961;28;20703;-57
2022/03/09 07:57:16;;;;;;;6.37;2.73;;;;;;;3.01;66.72;97145.66;10496359;28;20227;-62
2022/03/09 08:02:16;;;;;;;7.20;3.33;;;;;;;3.82;65.53;97149.81;10525898;28;20218;-61
2022/03/09 08:07:17;;;;;;;6.97;3.33;;;;;;;4.87;61.18;97084.63;10535605;28;20190;-61
2022/03/09 08:12:18;;;;;;;10.10;5.87;;;;;;;5.36;59.61;97084.44;10536526;28;20207;-59
2022/03/09 08:17:19;;;;;;;14.80;5.73;;;;;;;5.90;57.59;97046.56;10535518;28;20261;-61
2022/03/09 08:22:20;;;;;;;10.67;5.07;;;;;;;6.55;54.76;97010.25;10535230;28;20696;-59
2022/03/09 08:27:21;;;;;;;14.43;5.33;;;;;;;6.95;52.09;96967.13;10536689;28;20273;-61
2022/03/09 08:32:21;;;;;;;3.80;2.97;;;;;;;7.62;48.50;96920.66;10534311;28;20289;-63
2022/03/09 08:37:22;;;;;;;6.00;2.50;;;;;;;7.80;47.31;96898.19;10535636;28;20267;-63
2022/03/09 08:42:22;;;;;;;7.53;2.80;;;;;;;8.96;44.46;96853.91;10535053;28;20226;-63
2022/03/09 08:47:22;;;;;;;8.53;2.70;;;;;;;9.14;45.19;96900.19;10535323;28;20193;-60
2022/03/09 08:52:23;;;;;;;3.67;2.58;;;;;;;10.16;43.97;96900.06;10534509;28;20233;-63
2022/03/09 08:57:23;;;;;;;5.60;2.70;;;;;;;11.30;42.82;96914.22;10557118;28;20217;-64
2022/03/09 09:02:24;;;;;;;3.25;2.25;;;;;;;13.60;38.04;96832.00;10557314;28;20260;-63
2022/03/09 09:07:24;;;;;;;5.07;2.65;;;;;;;14.83;35.85;96824.19;10550709;28;20198;-64
2022/03/09 09:12:25;;;;;;;3.78;2.60;;;;;;;12.70;39.35;96888.28;10552521;28;20586;-64
2022/03/09 09:17:25;;;;;;;6.75;2.25;;;;;;;13.00;38.84;96907.81;10534368;28;20218;-65
2022/03/09 09:22:25;;;;;;;11.57;2.70;;;;;;;12.33;38.99;96894.88;10533878;28;20240;-63
2022/03/09 09:27:26;;;;;;;2.33;2.00;;;;;;;11.27;41.82;96955.66;10534351;28;20266;-63
2022/03/09 09:32:26;;;;;;;2.70;1.42;;;;;;;12.47;39.44;96920.47;10532691;28;20234;-63
2022/03/09 09:37:27;;;;;;;3.45;2.10;;;;;;;13.22;38.83;96941.50;10536376;28;20226;-63
2022/03/09 09:42:31;;;;;;;3.63;2.28;;;;;;;13.69;38.99;96944.19;10541987;28;20210;-64
2022/03/09 09:47:32;;;;;;;2.58;1.90;;;;;;;13.98;37.84;96912.94;10542796;28;20182;-62
2022/03/09 09:52:33;;;;;;;2.67;2.35;;;;;;;13.89;36.82;96884.00;10541649;28;20593;-62
2022/03/09 09:57:34;;;;;;;4.45;2.40;;;;;;;14.67;35.10;96843.63;10541073;28;20214;-63
2022/03/09 10:02:41;;;;;;;7.43;2.88;;;;;;;13.53;39.37;96954.75;10540429;28;20785;-63
2022/03/09 10:08:03;;;;;;;5.95;3.20;;;;;;;13.24;38.45;96906.13;10538297;28;20186;-63
2022/03/09 10:13:18;;;;;;;6.20;2.95;;;;;;;13.12;40.21;96952.97;10540990;28;20250;-63
2022/03/09 10:18:22;;;;;;;5.05;2.08;;;;;;;14.21;38.65;96947.22;10540134;28;20263;-63
2022/03/09 10:23:22;;;;;;;3.92;2.38;;;;;;;13.88;37.28;96890.25;10539950;28;20253;-64
2022/03/09 10:28:23;;;;;;;7.75;3.55;;;;;;;13.12;40.18;96957.44;10539881;28;20183;-63
2022/03/09 10:33:23;;;;;;;3.72;2.50;;;;;;;12.70;40.25;96938.22;10540181;28;20585;-62
2022/03/09 10:38:26;;;;;;;5.68;3.00;;;;;;;14.32;37.35;96917.84;10538490;28;20210;-62
2022/03/09 10:43:29;;;;;;;5.40;3.17;;;;;;;15.11;37.60;96961.59;10538693;28;20253;-63
2022/03/09 10:48:56;;;;;;;6.18;2.78;;;;;;;15.46;36.13;96914.38;10538382;28;20730;-63
2022/03/09 10:53:58;;;;;;;6.25;4.35;;;;;;;14.38;38.79;96956.69;10538519;28;20214;-63
2022/03/09 10:59:13;;;;;;;4.35;3.38;;;;;;;14.00;39.15;96961.81;10539028;28;20214;-63
2022/03/09 11:04:17;;;;;;;6.85;2.78;;;;;;;15.18;37.94;96972.25;10538529;28;20285;-62
2022/03/09 11:09:18;;;;;;;5.10;3.13;;;;;;;15.11;37.95;96951.84;10537876;28;20658;-63
2022/03/09 11:14:21;;;;;;;4.78;3.13;;;;;;;15.66;37.12;96960.34;10537905;28;20214;-64
2022/03/09 11:19:21;;;;;;;6.03;3.60;;;;;;;14.13;40.38;96992.88;10538164;28;20250;-64
2022/03/09 11:24:22;;;;;;;3.35;2.97;;;;;;;14.77;38.01;96933.84;10537510;28;20751;-62
2022/03/09 11:29:35;;;;;;;5.13;2.92;;;;;;;14.29;40.97;97013.06;10536273;28;20183;-62
2022/03/09 11:34:43;;;;;;;5.03;3.40;;;;;;;14.97;39.42;96995.66;10537503;28;20191;-63
2022/03/09 11:40:07;;;;;;;5.75;3.17;;;;;;;14.64;39.30;96958.19;10537471;28;20222;-63
2022/03/09 11:45:13;;;;;;;4.88;3.35;;;;;;;15.60;36.62;96924.13;10527735;28;20213;-63
2022/03/09 11:50:13;;;;;;;4.15;2.92;;;;;;;15.99;37.63;96978.50;10537075;28;20253;-64
2022/03/09 11:55:18;;;;;;;6.53;3.10;;;;;;;14.51;39.96;96984.28;10537159;28;20282;-65
2022/03/09 12:00:19;;;;;;;3.75;2.80;;;;;;;15.66;37.24;96941.88;10534826;28;20250;-64
2022/03/09 12:05:31;;;;;;;4.63;2.97;;;;;;;15.98;36.63;96929.28;10536518;28;20748;-64
2022/03/09 12:10:56;;;;;;;7.38;3.42;;;;;;;16.97;35.57;96930.50;10535712;28;20367;-64
2022/03/09 12:16:19;;;;;;;8.20;3.65;;;;;;;17.59;34.01;96897.06;10553237;28;20808;-64
2022/03/09 12:21:50;;;;;;;6.32;3.47;;;;;;;17.16;34.09;96875.25;10576916;28;20237;-65
2022/03/09 12:26:59;;;;;;;4.70;2.97;;;;;;;17.63;33.80;96878.97;10486669;28;20615;-64
2022/03/09 12:32:02;;;;;;;6.22;2.97;;;;;;;17.78;34.97;96916.75;10469880;28;20239;-65
2022/03/09 12:37:04;;;;;;;4.47;3.00;;;;;;;17.74;33.45;96853.75;10444827;28;20188;-64
2022/03/09 12:42:06;;;;;;;6.18;3.45;;;;;;;16.03;36.51;96900.50;10444304;28;20239;-64
2022/03/09 12:47:06;;;;;;;6.35;3.78;;;;;;;17.35;34.44;96871.91;10463072;28;20205;-65
2022/03/09 12:52:16;;;;;;;7.15;4.03;;;;;;;17.42;33.04;96826.91;10485380;28;20237;-65
2022/03/09 12:57:28;;;;;;;4.43;3.05;;;;;;;17.21;33.34;96825.19;10485497;28;20670;-64
2022/03/09 13:02:41;;;;;;;5.22;3.22;;;;;;;17.45;33.91;96882.16;10484522;28;20643;-64
2022/03/09 13:07:56;;;;;;;4.07;2.88;;;;;;;18.78;31.92;96855.16;10484936;28;20253;-65
2022/03/09 13:12:59;;;;;;;4.97;2.97;;;;;;;18.57;31.38;96832.28;10484389;28;20329;-65
2022/03/09 13:18:00;;;;;;;6.50;3.10;;;;;;;17.17;33.49;96840.66;10483860;28;20183;-65
2022/03/09 13:23:00;;;;;;;6.18;3.25;;;;;;;16.34;32.61;96776.94;10484325;28;20227;-64
2022/03/09 13:28:05;;;;;;;6.00;3.03;;;;;;;16.98;33.33;96828.91;10477254;28;20539;-64
2022/03/09 13:33:14;;;;;;;3.08;2.70;;;;;;;17.77;31.18;96774.66;10462141;28;20203;-64
2022/03/09 13:38:25;;;;;;;5.35;3.53;;;;;;;17.98;32.45;96831.22;10433155;28;20957;-64
2022/03/09 13:43:27;;;;;;;5.88;3.40;;;;;;;15.98;32.83;96756.75;10431924;28;20228;-65
2022/03/09 13:48:27;;;;;;;5.70;3.10;;;;;;;17.27;32.98;96829.69;10433385;28;20193;-63
2022/03/09 13:53:38;;;;;;;9.05;4.25;;;;;;;17.17;32.47;96797.47;10433572;28;20224;-65
2022/03/09 13:58:40;;;;;;;5.25;3.30;;;;;;;17.18;32.12;96793.81;10429545;28;20267;-63
2022/03/09 14:03:42;;;;;;;7.53;3.67;;;;;;;18.46;31.22;96803.72;10421698;28;20221;-65
2022/03/09 14:08:44;;;;;;;6.75;3.67;;;;;;;16.67;33.29;96808.13;10414404;28;20192;-64
2022/03/09 14:13:56;;;;;;;6.07;3.80;;;;;;;18.09;32.35;96829.81;10413674;28;20659;-64
2022/03/09 14:18:57;;;;;;;5.95;3.53;;;;;;;17.67;32.87;96829.06;10413337;28;20973;-64
2022/03/09 14:23:57;;;;;;;5.25;3.08;;;;;;;18.67;30.84;96790.25;10436706;28;20242;-64
2022/03/09 14:28:58;;;;;;;5.90;3.83;;;;;;;16.85;32.99;96808.47;10454657;28;20206;-64
2022/03/09 14:33:58;;;;;;;8.20;4.03;;;;;;;18.51;30.63;96775.59;10453046;28;20212;-63
2022/03/09 14:38:59;;;;;;;11.57;4.60;;;;;;;17.79;31.70;96796.50;10433670;28;20251;-63
2022/03/09 14:44:00;;;;;;;6.88;3.30;;;;;;;17.22;31.57;96755.34;10430738;28;20564;-62
2022/03/09 14:49:00;;;;;;;5.70;3.40;;;;;;;18.61;30.17;96771.69;10443140;28;20269;-63
2022/03/09 14:54:01;;;;;;;4.65;3.03;;;;;;;17.53;30.01;96709.00;10451108;28;20630;-63
2022/03/09 14:59:01;;;;;;;3.42;2.60;;;;;;;20.28;27.73;96737.22;10453448;28;20192;-63
2022/03/09 15:04:01;;;;;;;6.97;3.17;;;;;;;21.57;26.45;96740.22;10452481;28;20234;-63
2022/03/09 15:09:02;;;;;;;7.35;3.90;;;;;;;22.31;26.24;96743.41;10453029;28;20206;-63
2022/03/09 15:14:03;;;;;;;7.45;4.03;;;;;;;21.57;27.39;96770.34;10452622;28;20215;-63
2022/03/09 15:19:04;;;;;;;8.07;4.07;;;;;;;21.87;26.78;96748.19;10452678;28;20219;-62
2022/03/09 15:24:05;;;;;;;5.60;3.83;;;;;;;22.68;26.51;96761.91;10452048;28;20232;-63
2022/03/09 15:29:05;;;;;;;6.40;4.70;;;;;;;23.44;25.09;96751.22;10451072;28;20195;-63
2022/03/09 15:34:06;;;;;;;7.80;3.97;;;;;;;21.34;27.31;96749.69;10452092;28;20699;-63
2022/03/09 15:39:06;;;;;;;5.57;4.00;;;;;;;22.21;26.69;96770.66;10450188;28;20689;-64
2022/03/09 15:44:07;;;;;;;5.53;4.32;;;;;;;22.71;26.51;96780.16;10452105;28;20224;-63
2022/03/09 15:49:07;;;;;;;6.38;3.78;;;;;;;20.87;27.67;96746.75;10451690;28;20539;-64
2022/03/09 15:54:07;;;;;;;6.00;3.85;;;;;;;20.68;28.64;96794.66;10451386;28;20647;-64
2022/03/09 15:59:08;;;;;;;7.25;4.38;;;;;;;19.67;29.18;96780.38;10450164;28;20554;-65
2022/03/09 16:04:08;;;;;;;5.28;3.58;;;;;;;19.15;31.09;96839.63;10449497;28;20223;-65
2022/03/09 16:09:08;;;;;;;6.60;3.83;;;;;;;18.56;31.43;96825.38;10451303;28;20227;-65
2022/03/09 16:14:09;;;;;;;6.13;3.60;;;;;;;16.62;33.44;96835.16;10450482;28;20203;-64
2022/03/09 16:19:11;;;;;;;6.72;3.75;;;;;;;13.72;38.09;96882.44;10450585;28;20192;-66
2022/03/09 16:24:12;;;;;;;12.68;8.27;;;;;;;12.17;42.03;96982.31;10450078;28;20240;-63
2022/03/09 16:29:12;;;;;;;12.73;7.00;;;;;;;10.78;45.64;97053.06;10450425;28;20195;-63
2022/03/09 16:34:12;;;;;;;8.73;4.05;;;;;;;9.43;47.63;97091.81;10449437;28;20278;-63
2022/03/09 16:39:13;;;;;;;9.23;4.53;;;;;;;8.79;49.96;97155.88;10450060;28;20227;-64
2022/03/09 16:44:13;;;;;;;6.47;4.33;;;;;;;7.53;53.86;97229.91;10459714;28;20281;-64
2022/03/09 16:49:15;;;;;;;26.60;14.53;;;;;;;5.25;59.68;97330.34;10468529;28;20184;-63
2022/03/09 16:54:15;;;;;;;14.53;7.80;;;;;;;3.94;64.79;97391.81;10476802;28;20302;-65
2022/03/09 16:59:16;;;;;;;16.90;8.77;;;;;;;4.14;65.37;97361.19;10451121;28;20188;-63
2022/03/09 17:04:16;;;;;;;76.63;33.23;;;;;;;3.51;67.76;97379.00;10448548;28;20227;-61
2022/03/09 17:09:16;;;;;;;63.30;25.83;;;;;;;3.16;69.32;97375.06;10451038;28;20279;-62
2022/03/09 17:14:17;;;;;;;16.10;8.70;;;;;;;2.68;70.96;97392.63;10457334;28;20325;-61
2022/03/09 17:19:19;;;;;;;15.80;9.07;;;;;;;2.33;72.66;97385.16;10458906;28;20195;-63
2022/03/09 17:24:20;;;;;;;21.40;8.53;;;;;;;2.00;73.81;97395.66;10457716;28;20230;-63
2022/03/09 17:29:20;;;;;;;14.07;7.90;;;;;;;1.86;74.78;97399.03;10452857;28;20191;-63
2022/03/09 17:34:21;;;;;;;16.83;8.20;;;;;;;1.56;76.52;97408.38;10455481;28;20709;-62
2022/03/09 17:39:21;;;;;;;12.43;6.30;;;;;;;1.47;77.29;97397.69;10457519;28;20202;-63
2022/03/09 17:44:21;;;;;;;10.67;5.90;;;;;;;1.41;77.64;97410.03;10457363;28;20233;-64
2022/03/09 17:49:22;;;;;;;9.73;5.00;;;;;;;1.20;78.43;97421.50;10452806;28;20198;-63
2022/03/09 17:54:28;;;;;;;13.40;6.40;;;;;;;0.86;79.78;97420.69;10456583;28;20307;-63
2022/03/09 17:59:29;;;;;;;9.47;5.90;;;;;;;0.82;80.63;97427.72;10457320;28;20213;-63
2022/03/09 18:04:32;;;;;;;17.80;7.43;;;;;;;0.67;81.38;97429.34;10455763;28;20188;-61
2022/03/09 18:09:32;;;;;;;22.40;10.43;;;;;;;0.40;83.10;97441.00;10457509;28;20650;-64
2022/03/09 18:14:33;;;;;;;20.10;9.63;;;;;;;0.23;84.08;97445.25;10446167;28;20220;-63
2022/03/09 18:19:34;;;;;;;11.57;5.70;;;;;;;0.07;85.71;97440.00;10415698;28;20200;-63
2022/03/09 18:24:34;;;;;;;16.93;7.00;;;;;;;-0.09;86.97;97432.19;10415706;28;20714;-63
2022/03/09 18:29:35;;;;;;;10.77;5.27;;;;;;;-0.22;87.96;97436.22;10415510;28;20200;-62
2022/03/09 18:34:35;;;;;;;13.97;6.63;;;;;;;-0.29;88.81;97437.41;10415624;28;20648;-62
2022/03/09 18:39:35;;;;;;;13.93;6.93;;;;;;;-0.46;90.49;97441.63;10415065;28;20564;-62
2022/03/09 18:44:36;;;;;;;13.80;6.30;;;;;;;-0.59;90.95;97443.06;10414955;28;20207;-62
2022/03/09 18:49:36;;;;;;;12.40;5.47;;;;;;;-0.81;92.88;97450.88;10413736;28;20196;-62
2022/03/09 18:54:37;;;;;;;9.80;5.13;;;;;;;-0.93;95.23;97467.72;10413459;28;20230;-62
2022/03/09 18:59:37;;;;;;;30.50;11.97;;;;;;;-0.96;96.08;97460.13;10413843;28;20192;-61
2022/03/09 19:04:37;;;;;;;17.43;8.93;;;;;;;-1.02;96.36;97462.97;10413714;28;20181;-61
2022/03/09 19:09:38;;;;;;;13.07;6.27;;;;;;;-1.15;98.02;97463.50;10413192;28;20278;-62
2022/03/09 19:14:38;;;;;;;14.10;4.97;;;;;;;-1.28;99.48;97472.63;10412857;28;20354;-60
2022/03/09 19:19:39;;;;;;;14.63;6.80;;;;;;;-1.30;100.00;97464.16;10412556;28;20189;-60
2022/03/09 19:24:39;;;;;;;13.40;5.90;;;;;;;-1.36;100.00;97469.50;10436935;23;20331;-58
2022/03/09 19:29:39;;;;;;;12.60;6.23;;;;;;;-1.44;100.00;97473.25;10453734;28;20192;-59
2022/03/09 19:34:40;;;;;;;16.97;7.60;;;;;;;-1.45;100.00;97475.91;10452488;28;20702;-59
2022/03/09 19:39:40;;;;;;;17.63;6.90;;;;;;;-1.49;100.00;97466.63;10453300;28;20689;-59
2022/03/09 19:44:40;;;;;;;8.83;4.70;;;;;;;-1.47;100.00;97480.25;10452537;28;20207;-59
2022/03/09 19:49:41;;;;;;;10.00;6.07;;;;;;;-1.56;100.00;97496.03;10452965;28;20184;-61
2022/03/09 19:54:41;;;;;;;11.63;5.60;;;;;;;-1.50;100.00;97482.94;10452538;28;20227;-60
2022/03/09 19:59:42;;;;;;;5.87;3.33;;;;;;;-1.47;100.00;97487.94;10452269;28;20206;-59
2022/03/09 20:04:42;;;;;;;11.73;5.70;;;;;;;-1.56;100.00;97491.75;10452984;28;20200;-58
2022/03/09 20:09:43;;;;;;;15.07;6.60;;;;;;;-1.65;100.00;97492.13;10452194;28;20195;-57
2022/03/09 20:14:43;;;;;;;7.30;4.43;;;;;;;-1.67;100.00;97492.19;10451980;28;20227;-58
2022/03/09 20:19:44;;;;;;;13.80;6.10;;;;;;;-1.75;100.00;97503.66;10452407;28;20196;-60
2022/03/09 20:24:44;;;;;;;5.40;3.93;;;;;;;-1.73;100.00;97507.00;10452108;28;20665;-60
2022/03/09 20:29:45;;;;;;;8.57;5.70;;;;;;;-1.76;100.00;97509.69;10452389;28;20302;-59
2022/03/09 20:34:45;;;;;;;9.60;4.50;;;;;;;-1.83;100.00;97512.50;10451629;28;20228;-59
2022/03/09 20:39:46;;;;;;;9.17;4.80;;;;;;;-1.85;100.00;97516.84;10452320;28;20688;-57
2022/03/09 20:44:46;;;;;;;10.13;4.57;;;;;;;-1.87;100.00;97515.22;10453243;28;20701;-59
2022/03/09 20:49:46;;;;;;;8.07;4.90;;;;;;;-1.90;100.00;97525.63;10460157;28;20661;-60
2022/03/09 20:54:47;;;;;;;7.33;4.47;;;;;;;-2.00;100.00;97517.44;10459332;28;20261;-58
2022/03/09 20:59:47;;;;;;;12.20;6.30;;;;;;;-2.11;100.00;97517.00;10459288;28;20211;-60
2022/03/09 21:04:47;;;;;;;15.13;5.70;;;;;;;-2.13;100.00;97505.97;10459312;28;20203;-54
2022/03/09 21:09:48;;;;;;;5.00;3.47;;;;;;;-2.09;100.00;97517.81;10459414;28;20237;-59
2022/03/09 21:14:48;;;;;;;7.53;3.83;;;;;;;-1.96;100.00;97519.03;10458890;28;20255;-59
2022/03/09 21:19:48;;;;;;;11.30;4.83;;;;;;;-1.92;100.00;97523.13;10459537;28;20573;-59
2022/03/09 21:30:09;;;;;;;7.80;4.33;;;;;;;-1.93;100.00;97523.19;10458975;28;20191;-57
2022/03/09 21:35:12;;;;;;;9.10;5.97;;;;;;;-1.95;100.00;97522.41;10458096;28;20233;-59
2022/03/09 21:40:13;;;;;;;7.77;5.13;;;;;;;-1.90;100.00;97521.34;10448623;28;20233;-58
2022/03/09 21:45:13;;;;;;;12.73;5.23;;;;;;;-1.91;100.00;97523.97;10422117;28;20226;-60
2022/03/09 21:50:13;;;;;;;9.57;5.13;;;;;;;-1.95;100.00;97527.53;10455637;28;20678;-56
2022/03/09 21:55:14;;;;;;;8.50;4.53;;;;;;;-2.01;100.00;97524.31;10454005;28;20215;-58
2022/03/09 22:00:15;;;;;;;6.53;4.13;;;;;;;-2.00;100.00;97531.13;10455131;28;20198;-59
2022/03/09 22:05:15;;;;;;;4.93;3.43;;;;;;;-2.02;100.00;97532.06;10454283;28;20214;-59
2022/03/09 22:10:17;;;;;;;3.87;2.70;;;;;;;-2.06;100.00;97535.66;10454585;28;20188;-61
2022/03/09 22:15:17;;;;;;;6.03;3.90;;;;;;;-2.07;100.00;97544.25;10454253;28;20774;-61
2022/03/09 22:20:17;;;;;;;10.17;4.33;;;;;;;-2.19;100.00;97541.25;10456205;28;20256;-58
2022/03/09 22:25:18;;;;;;;11.97;4.77;;;;;;;-2.28;100.00;97554.44;10455984;28;20246;-60
2022/03/09 22:30:18;;;;;;;6.13;3.40;;;;;;;-2.18;100.00;97549.78;10456549;28;20220;-59
2022/03/09 22:35:19;;;;;;;10.93;5.20;;;;;;;-2.26;100.00;97554.38;10455858;28;20227;-54
2022/03/09 22:40:19;;;;;;;7.47;4.63;;;;;;;-2.33;100.00;97541.75;10456022;28;20203;-56
2022/03/09 22:45:20;;;;;;;6.53;3.27;;;;;;;-2.26;100.00;97544.94;10455829;28;20207;-56
2022/03/09 22:50:20;;;;;;;12.20;6.47;;;;;;;-2.34;100.00;97536.69;10455400;28;20704;-60
2022/03/09 22:55:20;;;;;;;12.93;6.40;;;;;;;-2.40;100.00;97549.75;10455670;28;20227;-57
2022/03/09 23:00:36;;;;;;;7.60;4.60;;;;;;;-2.45;100.00;97547.34;10455065;28;20240;-58
2022/03/09 23:05:37;;;;;;;8.53;4.83;;;;;;;-2.47;100.00;97543.97;10455138;28;20264;-56
2022/03/09 23:10:38;;;;;;;11.23;5.93;;;;;;;-2.49;100.00;97550.91;10454112;28;20556;-56
2022/03/09 23:15:39;;;;;;;11.87;6.40;;;;;;;-2.54;100.00;97557.94;10454512;28;20358;-55
2022/03/09 23:20:40;;;;;;;6.23;4.07;;;;;;;-2.52;100.00;97556.16;10454519;28;20238;-60